Time;durP1;ratioP1;P1;durP2;ratioP2;P2;SDS_P1;SDS_P2;PMS_P1;PMS_P2;Temp;Humidity;BMP_temperature;BMP_pressure;BME280_temperature;BME280_humidity;BME280_pressure;Samples;Min_cycle;Max_cycle;Signal;HPM_P1;HPM_P2
2022/01/15 00:00:25;;;;;;;40.38;28.23;;;;;;;0.95;100.00;100782.38;5054416;28;20280;-79
2022/01/15 00:02:52;;;;;;;45.95;27.92;;;;;;;0.89;100.00;100787.72;5054283;28;20673;-79
2022/01/15 00:05:20;;;;;;;39.65;28.23;;;;;;;0.99;100.00;100794.75;5054236;28;20232;-79
2022/01/15 00:07:48;;;;;;;43.75;28.05;;;;;;;0.93;100.00;100784.19;5054101;28;20274;-79
2022/01/15 00:10:15;;;;;;;38.63;27.60;;;;;;;0.92;100.00;100790.34;5054244;28;20319;-79
2022/01/15 00:12:42;;;;;;;40.17;28.55;;;;;;;0.94;100.00;100785.94;5054459;28;20236;-79
2022/01/15 00:15:15;;;;;;;34.42;26.20;;;;;;;1.00;100.00;100781.50;5054565;28;20194;-80
2022/01/15 00:17:47;;;;;;;39.95;28.33;;;;;;;0.90;100.00;100776.22;5054107;28;20200;-80
2022/01/15 00:20:19;;;;;;;42.00;26.85;;;;;;;0.82;100.00;100777.09;5054257;28;20629;-79
2022/01/15 00:22:48;;;;;;;31.27;23.80;;;;;;;0.97;100.00;100773.56;5054323;28;20258;-80
2022/01/15 00:25:15;;;;;;;39.47;26.30;;;;;;;1.07;100.00;100765.59;5053480;28;20199;-81
2022/01/15 00:27:42;;;;;;;36.95;25.88;;;;;;;1.00;100.00;100762.94;5054860;28;20374;-78
2022/01/15 00:30:10;;;;;;;35.78;26.08;;;;;;;0.95;100.00;100766.47;5053672;28;20226;-78
2022/01/15 00:32:37;;;;;;;35.53;24.42;;;;;;;0.96;100.00;100768.25;5054159;28;20201;-80
2022/01/15 00:35:05;;;;;;;36.88;23.98;;;;;;;1.19;100.00;100770.88;5054097;28;20222;-78
2022/01/15 00:37:33;;;;;;;36.08;25.25;;;;;;;1.34;100.00;100762.91;5053669;28;20219;-78
2022/01/15 00:40:03;;;;;;;36.97;25.65;;;;;;;1.40;100.00;100759.34;5053503;28;20204;-78
2022/01/15 00:42:32;;;;;;;40.28;25.77;;;;;;;1.36;100.00;100752.31;5053982;28;20207;-79
2022/01/15 00:45:00;;;;;;;39.83;28.17;;;;;;;1.46;100.00;100760.22;5053706;28;20288;-79
2022/01/15 00:47:31;;;;;;;41.03;26.88;;;;;;;1.43;100.00;100752.28;5053987;28;20186;-78
2022/01/15 00:49:58;;;;;;;51.65;29.60;;;;;;;1.30;100.00;100757.63;5053430;28;20208;-79
2022/01/15 00:52:24;;;;;;;38.05;25.08;;;;;;;1.34;100.00;100754.94;5053791;28;20297;-79
2022/01/15 00:54:51;;;;;;;37.70;25.25;;;;;;;1.23;100.00;100740.81;5053781;28;20210;-79
2022/01/15 00:57:20;;;;;;;33.17;23.23;;;;;;;1.07;100.00;100745.25;5053942;28;20701;-78
2022/01/15 00:59:46;;;;;;;41.63;25.52;;;;;;;1.27;100.00;100742.59;5053346;28;20243;-79
2022/01/15 01:02:14;;;;;;;37.25;26.80;;;;;;;1.19;100.00;100744.34;5053501;28;20292;-79
2022/01/15 01:04:40;;;;;;;37.60;23.70;;;;;;;1.31;100.00;100743.44;5053530;28;20620;-79
2022/01/15 01:07:07;;;;;;;35.20;23.42;;;;;;;1.20;100.00;100747.03;5053284;28;20268;-79
2022/01/15 01:09:49;;;;;;;30.70;21.20;;;;;;;1.08;100.00;100741.72;5053211;28;20638;-78
2022/01/15 01:12:28;;;;;;;26.33;21.65;;;;;;;1.03;100.00;100741.72;5053481;28;20189;-78
2022/01/15 01:20:36;;;;;;;28.63;19.15;;;;;;;1.11;100.00;100738.16;5052396;28;20654;-79
2022/01/15 01:23:03;;;;;;;24.98;17.67;;;;;;;1.19;100.00;100731.97;5053288;28;20189;-79
2022/01/15 01:25:36;;;;;;;26.63;18.42;;;;;;;1.04;100.00;100730.25;5053022;28;20647;-79
2022/01/15 01:28:08;;;;;;;27.52;17.17;;;;;;;1.10;100.00;100736.41;5054173;28;20288;-79
2022/01/15 01:30:42;;;;;;;25.52;19.10;;;;;;;1.10;100.00;100733.75;5052995;28;20214;-79
2022/01/15 01:33:28;;;;;;;28.67;18.27;;;;;;;0.85;100.00;100717.00;5052681;28;20191;-78
2022/01/15 01:36:07;;;;;;;25.75;16.77;;;;;;;0.93;100.00;100723.19;5052881;28;20635;-79
2022/01/15 01:38:39;;;;;;;24.00;16.60;;;;;;;0.90;100.00;100713.44;5052716;28;20186;-79
2022/01/15 01:41:07;;;;;;;20.23;16.10;;;;;;;0.87;100.00;100716.09;5052590;28;20283;-79
2022/01/15 01:43:44;;;;;;;25.15;16.52;;;;;;;0.86;100.00;100718.75;5052308;28;20204;-79
2022/01/15 01:46:19;;;;;;;26.48;17.15;;;;;;;0.82;100.00;100712.56;5052980;28;20192;-79
2022/01/15 01:48:47;;;;;;;24.67;16.23;;;;;;;0.83;100.00;100717.84;5052656;28;20198;-78
2022/01/15 01:51:21;;;;;;;19.52;15.75;;;;;;;0.87;100.00;100707.28;5052587;28;20231;-78
2022/01/15 01:53:48;;;;;;;26.75;17.38;;;;;;;0.80;100.00;100709.03;5052087;28;20188;-78
2022/01/15 01:56:15;;;;;;;22.67;14.75;;;;;;;0.79;100.00;100709.91;5051882;28;20205;-79
2022/01/15 01:58:42;;;;;;;23.60;15.25;;;;;;;0.83;100.00;100714.31;5052192;28;20327;-79
2022/01/15 02:01:08;;;;;;;22.05;15.02;;;;;;;0.81;100.00;100716.09;5052504;28;20199;-79
2022/01/15 02:03:37;;;;;;;19.48;15.60;;;;;;;0.85;100.00;100715.22;5052341;28;20206;-79
2022/01/15 02:06:03;;;;;;;20.10;15.07;;;;;;;0.96;100.00;100708.13;5052858;28;20686;-79
2022/01/15 02:08:33;;;;;;;21.13;13.70;;;;;;;1.03;100.00;100707.22;5052373;28;20192;-80
2022/01/15 02:11:02;;;;;;;19.33;13.40;;;;;;;1.03;100.00;100701.94;5052027;28;20286;-79
2022/01/15 02:13:29;;;;;;;22.17;14.98;;;;;;;1.18;100.00;100706.34;5052335;28;20649;-79
2022/01/15 02:15:57;;;;;;;21.10;14.63;;;;;;;1.18;100.00;100700.16;5052272;28;20523;-79
2022/01/15 02:18:24;;;;;;;17.05;13.00;;;;;;;1.23;100.00;100708.97;5052430;28;20731;-79
2022/01/15 02:23:32;;;;;;;19.77;15.02;;;;;;;1.33;100.00;100697.44;5051819;28;20252;-78
2022/01/15 02:23:51;;;;;;;17.75;13.35;;;;;;;1.22;100.00;100700.13;5051862;28;20185;-77
2022/01/15 02:26:19;;;;;;;21.90;14.15;;;;;;;1.25;100.00;100692.16;5052148;28;20264;-78
2022/01/15 02:28:52;;;;;;;21.90;15.55;;;;;;;1.20;100.00;100693.06;5052089;28;20210;-78
2022/01/15 02:31:22;;;;;;;20.95;14.32;;;;;;;1.24;100.00;100689.50;5051062;28;20692;-78
2022/01/15 02:33:50;;;;;;;21.00;15.38;;;;;;;1.12;100.00;100692.19;5052042;28;20224;-79
2022/01/15 02:36:19;;;;;;;21.38;15.60;;;;;;;1.02;100.00;100688.69;5051796;28;20208;-79
2022/01/15 02:38:47;;;;;;;19.20;13.65;;;;;;;1.12;100.00;100694.84;5051973;28;20236;-79
2022/01/15 02:41:15;;;;;;;21.85;14.60;;;;;;;1.07;100.00;100688.69;5052232;28;20730;-79
2022/01/15 02:43:42;;;;;;;17.52;13.90;;;;;;;1.06;100.00;100686.91;5051927;28;20649;-79
2022/01/15 02:46:21;;;;;;;19.13;13.68;;;;;;;1.14;100.00;100687.78;5052213;28;20287;-79
2022/01/15 02:48:51;;;;;;;18.77;12.73;;;;;;;1.07;100.00;100681.59;5051783;28;20279;-79
2022/01/15 02:51:19;;;;;;;16.70;12.00;;;;;;;0.84;100.00;100684.28;5051451;28;20213;-79
2022/01/15 02:53:50;;;;;;;16.00;13.18;;;;;;;0.93;100.00;100684.28;5051623;28;20255;-79
2022/01/15 02:56:16;;;;;;;15.20;12.35;;;;;;;0.80;100.00;100682.53;5052202;28;20974;-79
2022/01/15 02:58:43;;;;;;;17.75;13.20;;;;;;;0.73;100.00;100676.34;5051761;28;20287;-79
2022/01/15 03:01:10;;;;;;;16.08;12.80;;;;;;;0.71;100.00;100679.88;5052087;28;20203;-79
2022/01/15 03:03:37;;;;;;;14.82;13.02;;;;;;;0.75;100.00;100685.19;5051788;28;20188;-80
2022/01/15 03:06:05;;;;;;;17.83;14.13;;;;;;;0.80;100.00;100677.22;5052088;28;21019;-79
2022/01/15 03:08:33;;;;;;;16.63;12.30;;;;;;;0.73;100.00;100679.00;5052173;28;20878;-79
2022/01/15 03:11:02;;;;;;;18.55;13.57;;;;;;;0.83;100.00;100675.44;5051460;28;20207;-79
2022/01/15 03:13:29;;;;;;;15.60;11.85;;;;;;;0.78;100.00;100679.88;5051418;28;20197;-79
2022/01/15 03:15:56;;;;;;;15.10;11.95;;;;;;;0.84;100.00;100668.38;5051729;28;20210;-79
2022/01/15 03:18:23;;;;;;;17.98;11.45;;;;;;;0.85;100.00;100663.97;5052771;28;20297;-79
2022/01/15 03:20:52;;;;;;;18.08;11.13;;;;;;;0.87;100.00;100673.66;5071663;28;20217;-79
2022/01/15 03:23:19;;;;;;;16.10;11.85;;;;;;;0.65;100.00;100664.84;5071346;28;20210;-78
2022/01/15 03:25:47;;;;;;;20.17;12.43;;;;;;;0.66;100.00;100661.34;5071644;28;20204;-79
2022/01/15 03:28:14;;;;;;;17.27;12.50;;;;;;;0.57;100.00;100667.50;5071773;28;20628;-79
2022/01/15 03:30:41;;;;;;;14.23;11.52;;;;;;;0.44;100.00;100665.75;5071217;28;20232;-79
2022/01/15 03:33:08;;;;;;;16.55;11.98;;;;;;;0.50;100.00;100665.75;5071414;28;20220;-79
2022/01/15 03:35:36;;;;;;;16.00;14.30;;;;;;;0.43;100.00;100661.34;5071691;28;20266;-79
2022/01/15 03:38:03;;;;;;;17.63;12.82;;;;;;;0.44;100.00;100663.09;5071586;28;20203;-78
2022/01/15 03:40:31;;;;;;;20.23;13.60;;;;;;;0.44;100.00;100659.56;5071575;28;20192;-78
2022/01/15 03:43:00;;;;;;;17.00;13.50;;;;;;;0.31;100.00;100656.03;5072943;28;20207;-79
2022/01/15 03:45:27;;;;;;;16.55;12.88;;;;;;;0.27;100.00;100662.19;5075192;28;20213;-79
2022/01/15 03:47:56;;;;;;;20.88;12.98;;;;;;;0.25;100.00;100666.59;5071997;28;20203;-79
2022/01/15 03:50:25;;;;;;;19.08;14.20;;;;;;;0.13;100.00;100659.53;5074966;28;20218;-79
2022/01/15 03:52:52;;;;;;;20.65;14.82;;;;;;;0.19;100.00;100664.84;5074855;28;20194;-78
2022/01/15 03:55:20;;;;;;;15.27;13.68;;;;;;;0.13;100.00;100663.06;5074864;28;20662;-79
2022/01/15 03:57:47;;;;;;;20.67;15.45;;;;;;;0.11;100.00;100662.16;5074478;28;20242;-79
2022/01/15 04:00:18;;;;;;;19.20;14.65;;;;;;;0.05;100.00;100662.19;5074584;28;20243;-79
2022/01/15 04:02:45;;;;;;;19.33;14.50;;;;;;;0.25;100.00;100669.25;5075027;28;20269;-79
2022/01/15 04:05:12;;;;;;;20.50;15.25;;;;;;;0.43;100.00;100664.00;5074579;28;20199;-79
2022/01/15 04:07:39;;;;;;;20.02;13.70;;;;;;;0.34;100.00;100656.91;5075061;28;20209;-79
2022/01/15 04:10:10;;;;;;;20.48;14.65;;;;;;;0.31;100.00;100651.59;5074774;28;20294;-79
2022/01/15 04:12:39;;;;;;;19.88;13.40;;;;;;;0.44;100.00;100656.91;5074551;28;20208;-79
2022/01/15 04:15:07;;;;;;;21.65;14.52;;;;;;;0.41;100.00;100663.09;5074707;28;20653;-78
2022/01/15 04:17:36;;;;;;;19.45;13.18;;;;;;;0.45;100.00;100659.53;5060093;28;20238;-79
2022/01/15 04:20:02;;;;;;;18.75;13.15;;;;;;;0.52;100.00;100658.69;5054521;28;20676;-78
2022/01/15 04:22:29;;;;;;;20.63;13.38;;;;;;;0.57;100.00;100654.25;5054538;28;20629;-79
2022/01/15 04:24:56;;;;;;;20.10;13.32;;;;;;;0.57;100.00;100653.38;5054380;28;20225;-78
2022/01/15 04:27:23;;;;;;;19.30;12.52;;;;;;;0.30;100.00;100660.44;5054120;28;20270;-78
2022/01/15 04:29:50;;;;;;;17.83;12.77;;;;;;;0.37;100.00;100656.03;5053980;28;20188;-79
2022/01/15 04:32:17;;;;;;;19.75;12.70;;;;;;;0.43;100.00;100655.13;5054221;28;20302;-79
2022/01/15 04:34:45;;;;;;;15.57;12.05;;;;;;;0.57;100.00;100646.31;5053751;28;20201;-79
2022/01/15 04:37:15;;;;;;;17.77;12.68;;;;;;;0.58;100.00;100642.75;5053927;28;20224;-79
2022/01/15 04:39:42;;;;;;;16.10;12.13;;;;;;;0.64;100.00;100635.72;5054271;28;20194;-78
2022/01/15 04:42:09;;;;;;;19.98;14.00;;;;;;;0.53;100.00;100641.88;5053748;28;20195;-78
2022/01/15 04:44:36;;;;;;;15.63;12.02;;;;;;;0.60;100.00;100632.16;5053769;28;20242;-78
2022/01/15 04:47:04;;;;;;;18.27;11.75;;;;;;;0.62;100.00;100628.63;5054204;28;20228;-78
2022/01/15 04:49:30;;;;;;;17.15;11.25;;;;;;;0.49;100.00;100634.81;5054048;28;20262;-79
2022/01/15 04:51:59;;;;;;;17.83;12.25;;;;;;;0.57;100.00;100625.09;5053443;28;20207;-77
2022/01/15 04:54:25;;;;;;;19.70;12.10;;;;;;;0.56;100.00;100619.78;5052576;28;20236;-78
2022/01/15 04:56:53;;;;;;;14.07;10.57;;;;;;;0.17;100.00;100630.41;5053717;28;20626;-78
2022/01/15 04:59:20;;;;;;;18.58;12.50;;;;;;;0.16;100.00;100631.28;5053837;28;20216;-78
2022/01/15 05:01:47;;;;;;;15.52;11.65;;;;;;;-0.13;100.00;100630.38;5053451;28;20203;-78
2022/01/15 05:04:13;;;;;;;19.35;12.50;;;;;;;-0.24;100.00;100623.28;5053835;28;20660;-77
2022/01/15 05:06:40;;;;;;;20.90;13.18;;;;;;;-0.04;100.00;100627.75;5053598;28;20700;-78
2022/01/15 05:09:08;;;;;;;19.35;11.85;;;;;;;0.19;100.00;100623.34;5053325;28;20278;-80
2022/01/15 05:11:45;;;;;;;18.30;12.45;;;;;;;0.32;100.00;100623.38;5053106;28;20231;-80
2022/01/15 05:14:13;;;;;;;25.67;13.15;;;;;;;0.30;100.00;100620.69;5053194;28;20214;-78
2022/01/15 05:16:40;;;;;;;17.75;12.30;;;;;;;0.37;100.00;100630.41;5053210;28;20199;-78
2022/01/15 05:19:07;;;;;;;18.58;12.30;;;;;;;0.51;100.00;100619.81;5053102;28;20223;-78
2022/01/15 05:21:34;;;;;;;18.35;12.35;;;;;;;0.35;100.00;100626.88;5053004;28;20247;-78
2022/01/15 05:24:00;;;;;;;17.15;11.63;;;;;;;0.55;100.00;100618.91;5053526;28;20192;-78
2022/01/15 05:26:28;;;;;;;17.23;10.85;;;;;;;0.71;100.00;100618.91;5052749;28;20294;-79
2022/01/15 05:28:56;;;;;;;17.52;11.00;;;;;;;0.71;100.00;100617.13;5052906;28;20213;-78
2022/01/15 05:31:23;;;;;;;20.63;12.45;;;;;;;0.65;100.00;100609.19;5053079;28;20204;-78
2022/01/15 05:33:50;;;;;;;19.58;12.43;;;;;;;0.56;100.00;100604.78;5052965;28;20243;-78
2022/01/15 05:36:17;;;;;;;16.65;11.93;;;;;;;0.48;100.00;100614.53;5052995;28;20196;-78
2022/01/15 05:38:43;;;;;;;17.05;11.20;;;;;;;0.34;100.00;100610.97;5053269;28;20226;-79
2022/01/15 05:41:10;;;;;;;18.58;12.30;;;;;;;0.49;100.00;100599.50;5052575;28;20214;-79
2022/01/15 05:43:38;;;;;;;18.27;11.60;;;;;;;0.38;100.00;100608.31;5053060;28;20572;-78
2022/01/15 05:46:05;;;;;;;15.70;11.90;;;;;;;0.20;100.00;100610.97;5052875;28;20301;-79
2022/01/15 05:48:32;;;;;;;16.60;11.55;;;;;;;0.07;100.00;100615.41;5072764;28;20629;-78
2022/01/15 05:50:59;;;;;;;20.13;12.10;;;;;;;0.20;100.00;100614.53;5072329;28;20207;-78
2022/01/15 05:53:25;;;;;;;17.33;11.95;;;;;;;0.35;100.00;100615.41;5072867;28;20203;-78
2022/01/15 05:55:52;;;;;;;18.85;12.88;;;;;;;0.50;100.00;100611.84;5072557;28;20526;-77
2022/01/15 05:58:19;;;;;;;20.70;12.98;;;;;;;0.39;100.00;100609.22;5072430;28;20732;-78
2022/01/15 06:00:46;;;;;;;17.45;11.65;;;;;;;0.26;100.00;100616.28;5072277;28;20211;-78
2022/01/15 06:03:13;;;;;;;17.67;12.63;;;;;;;0.28;100.00;100617.16;5072123;28;20289;-79
2022/01/15 06:05:40;;;;;;;19.25;12.52;;;;;;;0.36;100.00;100614.50;5072032;28;20203;-79
2022/01/15 06:08:07;;;;;;;16.70;12.60;;;;;;;0.36;100.00;100611.84;5072554;28;20203;-79
2022/01/15 06:10:34;;;;;;;20.45;12.68;;;;;;;0.41;100.00;100599.50;5072160;28;20186;-79
2022/01/15 06:13:01;;;;;;;18.73;11.70;;;;;;;0.46;100.00;100603.03;5072199;28;20207;-79
2022/01/15 06:15:28;;;;;;;18.27;12.23;;;;;;;0.57;100.00;100605.69;5071916;28;20202;-79
2022/01/15 06:17:56;;;;;;;19.92;12.15;;;;;;;0.63;100.00;100603.00;5052203;28;20218;-78
2022/01/15 06:20:23;;;;;;;17.88;11.45;;;;;;;0.65;100.00;100600.34;5052472;28;20293;-78
2022/01/15 06:22:50;;;;;;;19.80;12.95;;;;;;;0.65;100.00;100603.88;5052385;28;20604;-78
2022/01/15 06:25:16;;;;;;;19.30;13.10;;;;;;;0.79;100.00;100602.09;5051907;28;20206;-79
2022/01/15 06:27:43;;;;;;;20.45;12.45;;;;;;;0.56;100.00;100596.81;5052040;28;20218;-78
2022/01/15 06:30:10;;;;;;;18.90;13.65;;;;;;;0.19;100.00;100607.44;5052189;28;20655;-78
2022/01/15 06:32:37;;;;;;;22.23;13.57;;;;;;;0.52;100.00;100602.13;5051802;28;20211;-78
2022/01/15 06:35:09;;;;;;;20.17;14.52;;;;;;;0.73;100.00;100596.81;5051862;28;20299;-78
2022/01/15 06:37:37;;;;;;;16.35;10.57;;;;;;;0.82;100.00;100595.91;5052142;28;20249;-78
2022/01/15 06:40:05;;;;;;;16.85;10.60;;;;;;;0.88;100.00;100595.88;5052022;28;20197;-78
2022/01/15 06:42:32;;;;;;;19.25;12.80;;;;;;;1.01;100.00;100597.59;5051926;28;20188;-77
2022/01/15 06:44:59;;;;;;;18.70;12.18;;;;;;;1.09;100.00;100602.91;5051920;28;20291;-79
2022/01/15 06:47:26;;;;;;;17.38;12.23;;;;;;;1.04;100.00;100602.91;5060546;28;20243;-80
2022/01/15 06:49:53;;;;;;;16.90;11.60;;;;;;;0.95;100.00;100602.03;5072110;28;20638;-79
2022/01/15 06:52:21;;;;;;;18.70;12.70;;;;;;;1.02;100.00;100603.81;5071724;28;20580;-78
2022/01/15 06:54:48;;;;;;;18.23;11.57;;;;;;;1.01;100.00;100602.91;5071984;28;20211;-79
2022/01/15 06:57:15;;;;;;;17.45;11.45;;;;;;;0.95;100.00;100595.00;5071784;28;20259;-79
2022/01/15 06:59:44;;;;;;;21.00;14.20;;;;;;;0.91;100.00;100597.66;5071938;28;20653;-78
2022/01/15 07:02:11;;;;;;;29.73;16.35;;;;;;;0.99;100.00;100602.03;5072007;28;20216;-78
2022/01/15 07:04:37;;;;;;;26.70;16.65;;;;;;;1.00;100.00;100601.16;5071454;28;20183;-78
2022/01/15 07:07:04;;;;;;;18.70;12.73;;;;;;;0.90;100.00;100602.06;5071746;28;20568;-79
2022/01/15 07:09:32;;;;;;;25.17;14.32;;;;;;;0.82;100.00;100603.88;5071945;28;20290;-79
2022/01/15 07:11:59;;;;;;;18.17;13.40;;;;;;;0.94;100.00;100601.16;5071258;28;20234;-78
2022/01/15 07:14:26;;;;;;;16.50;11.60;;;;;;;1.08;100.00;100597.59;5071658;28;20207;-79
2022/01/15 07:16:53;;;;;;;22.50;13.50;;;;;;;1.02;100.00;100587.91;5058279;28;20613;-79
2022/01/15 07:19:19;;;;;;;16.42;11.38;;;;;;;0.96;100.00;100587.91;5055511;28;20643;-79
2022/01/15 07:21:47;;;;;;;18.30;12.55;;;;;;;0.89;100.00;100588.81;5068947;28;20358;-78
2022/01/15 07:24:14;;;;;;;16.73;12.48;;;;;;;0.91;100.00;100584.41;5075194;28;20614;-78
2022/01/15 07:26:42;;;;;;;19.33;13.05;;;;;;;0.78;100.00;100588.84;5074998;28;20579;-77
2022/01/15 07:29:14;;;;;;;19.35;13.50;;;;;;;0.89;100.00;100597.66;5074593;28;20192;-78
2022/01/15 07:31:41;;;;;;;15.80;10.88;;;;;;;0.76;100.00;100599.44;5074711;28;20196;-79
2022/01/15 07:34:08;;;;;;;23.15;13.57;;;;;;;0.89;100.00;100599.44;5074697;28;20285;-78
2022/01/15 07:36:38;;;;;;;22.38;14.20;;;;;;;0.93;100.00;100595.88;5074926;28;20202;-78
2022/01/15 07:39:07;;;;;;;18.02;11.88;;;;;;;0.72;100.00;100595.03;5075075;28;20274;-78
2022/01/15 07:41:34;;;;;;;18.58;12.18;;;;;;;0.77;100.00;100593.28;5074170;28;20209;-79
2022/01/15 07:44:02;;;;;;;15.63;11.48;;;;;;;0.64;100.00;100601.25;5074797;28;20208;-78
2022/01/15 07:46:29;;;;;;;21.67;12.73;;;;;;;0.66;100.00;100602.13;5072095;28;20226;-78
2022/01/15 07:48:55;;;;;;;18.63;12.10;;;;;;;0.88;100.00;100601.16;5073596;28;20206;-78
2022/01/15 07:51:24;;;;;;;16.50;11.60;;;;;;;0.72;100.00;100602.09;5073519;28;20298;-78
2022/01/15 07:53:53;;;;;;;22.60;15.32;;;;;;;0.44;100.00;100595.97;5072780;28;20687;-77
2022/01/15 07:56:20;;;;;;;17.60;11.43;;;;;;;0.58;100.00;100600.34;5072837;28;20217;-80
2022/01/15 07:58:49;;;;;;;20.70;14.02;;;;;;;0.65;100.00;100593.28;5073355;28;20235;-79
2022/01/15 08:01:17;;;;;;;20.35;12.82;;;;;;;0.65;100.00;100590.63;5073550;28;20234;-81
2022/01/15 08:03:44;;;;;;;19.98;12.20;;;;;;;0.87;100.00;100586.16;5073330;28;20715;-80
2022/01/15 08:06:11;;;;;;;22.63;14.10;;;;;;;0.76;100.00;100582.66;5073533;28;20562;-80
2022/01/15 08:08:38;;;;;;;18.70;13.07;;;;;;;0.97;100.00;100579.06;5073683;28;20591;-80
2022/01/15 08:11:05;;;;;;;19.63;12.90;;;;;;;0.75;100.00;100572.94;5073060;28;20290;-81
2022/01/15 08:13:32;;;;;;;19.13;12.30;;;;;;;0.73;100.00;100572.06;5072068;28;20234;-81
2022/01/15 08:16:01;;;;;;;20.67;12.77;;;;;;;0.87;100.00;100564.94;5072693;28;20628;-81
2022/01/15 08:18:29;;;;;;;19.23;11.90;;;;;;;1.08;100.00;100579.03;5073226;28;20217;-79
2022/01/15 08:20:56;;;;;;;17.92;11.43;;;;;;;0.86;100.00;100572.91;5072049;28;20339;-80
2022/01/15 08:23:23;;;;;;;18.45;12.80;;;;;;;0.76;100.00;100567.63;5071935;28;20203;-79
2022/01/15 08:25:50;;;;;;;20.10;12.48;;;;;;;0.72;100.00;100571.16;5070542;28;20719;-80
2022/01/15 08:28:17;;;;;;;20.10;12.02;;;;;;;0.99;100.00;100572.84;5073229;28;20282;-78
2022/01/15 08:30:44;;;;;;;23.60;12.90;;;;;;;1.01;100.00;100571.06;5072961;28;20202;-78
2022/01/15 08:33:11;;;;;;;23.55;13.18;;;;;;;0.90;100.00;100566.72;5072698;28;20228;-78
2022/01/15 08:35:39;;;;;;;19.90;12.27;;;;;;;0.69;100.00;100571.19;5072392;28;20206;-78
2022/01/15 08:38:06;;;;;;;20.85;11.80;;;;;;;0.79;100.00;100569.38;5072339;28;20239;-79
2022/01/15 08:40:33;;;;;;;21.65;12.80;;;;;;;1.11;100.00;100576.34;5072661;28;20290;-81
2022/01/15 08:43:00;;;;;;;21.42;13.15;;;;;;;1.03;100.00;100571.09;5070024;28;20642;-80
2022/01/15 08:45:28;;;;;;;19.85;12.68;;;;;;;1.08;100.00;100566.63;5072278;28;20206;-77
2022/01/15 08:47:55;;;;;;;21.33;13.20;;;;;;;1.15;100.00;100567.50;5070736;28;20646;-80
2022/01/15 08:50:22;;;;;;;18.40;12.63;;;;;;;1.02;100.00;100567.56;5070914;28;20294;-80
2022/01/15 08:52:50;;;;;;;22.55;12.88;;;;;;;1.42;100.00;100567.34;5072258;28;20227;-80
2022/01/15 08:55:20;;;;;;;15.73;12.73;;;;;;;1.15;100.00;100562.19;5068209;28;20246;-81
2022/01/15 08:57:47;;;;;;;20.58;13.65;;;;;;;0.96;100.00;100567.56;5073502;28;20323;-82
2022/01/15 09:00:18;;;;;;;21.02;13.13;;;;;;;1.02;100.00;100569.34;5073341;28;20238;-82
2022/01/15 09:02:45;;;;;;;21.70;12.52;;;;;;;1.00;100.00;100569.31;5072899;28;20186;-81
2022/01/15 09:05:13;;;;;;;19.92;12.73;;;;;;;1.16;100.00;100556.88;5072937;28;20194;-83
2022/01/15 09:07:40;;;;;;;19.55;13.10;;;;;;;1.22;100.00;100564.81;5073084;28;20196;-81
2022/01/15 09:10:09;;;;;;;21.08;12.60;;;;;;;1.38;100.00;100565.63;5069879;28;20307;-80
2022/01/15 09:12:36;;;;;;;21.85;12.30;;;;;;;1.59;100.00;100561.09;5069664;28;20208;-78
2022/01/15 09:15:03;;;;;;;18.10;11.25;;;;;;;1.56;100.00;100569.06;5069115;28;20219;-79
2022/01/15 09:17:30;;;;;;;16.15;11.93;;;;;;;1.72;100.00;100564.53;5071959;28;20243;-80
2022/01/15 09:19:56;;;;;;;17.60;11.93;;;;;;;1.72;100.00;100572.50;5072249;28;20228;-80
2022/01/15 09:22:23;;;;;;;21.13;12.48;;;;;;;1.44;100.00;100567.34;5068359;28;20204;-81
2022/01/15 09:24:50;;;;;;;18.00;11.85;;;;;;;1.47;100.00;100570.00;5068444;28;20208;-81
2022/01/15 09:30:15;;;;;;;18.92;12.45;;;;;;;1.36;100.00;100569.19;5070547;28;20562;-78
2022/01/15 09:32:44;;;;;;;21.52;14.45;;;;;;;1.44;100.00;100570.88;5070593;28;20212;-81
2022/01/15 09:35:12;;;;;;;20.85;12.57;;;;;;;1.83;100.00;100565.34;5070811;28;20299;-81
2022/01/15 09:37:39;;;;;;;18.67;13.07;;;;;;;2.06;100.00;100559.88;5070852;28;20196;-82
2022/01/15 09:40:07;;;;;;;18.63;12.43;;;;;;;2.20;100.00;100549.13;5070239;28;20204;-80
2022/01/15 09:42:35;;;;;;;17.92;12.50;;;;;;;2.28;100.00;100548.19;5069230;28;20287;-79
2022/01/15 09:45:04;;;;;;;18.67;12.68;;;;;;;2.16;100.00;100550.03;5054790;28;20232;-81
2022/01/15 09:47:33;;;;;;;21.02;12.35;;;;;;;1.90;100.00;100553.81;5052703;28;20296;-80
2022/01/15 09:50:01;;;;;;;19.02;12.10;;;;;;;1.77;100.00;100542.38;5054413;28;20252;-80
2022/01/15 09:52:28;;;;;;;22.42;13.38;;;;;;;1.68;100.00;100553.06;5071691;28;20650;-77
2022/01/15 09:54:55;;;;;;;20.13;13.82;;;;;;;2.01;100.00;100545.72;5070359;28;20240;-79
2022/01/15 09:57:21;;;;;;;18.98;12.32;;;;;;;2.11;100.00;100535.94;5069762;28;20297;-81
2022/01/15 09:59:49;;;;;;;17.08;11.60;;;;;;;2.09;100.00;100533.28;5072043;28;20288;-81
2022/01/15 10:02:16;;;;;;;18.80;13.07;;;;;;;1.95;100.00;100538.72;5069854;28;20296;-80
2022/01/15 10:04:43;;;;;;;18.80;12.02;;;;;;;2.37;100.00;100528.56;5071874;28;20204;-81
2022/01/15 10:07:14;;;;;;;21.20;11.85;;;;;;;2.23;100.00;100527.84;5071985;28;20390;-81
2022/01/15 10:09:42;;;;;;;21.02;12.43;;;;;;;2.47;100.00;100524.94;5072551;28;20244;-84
2022/01/15 10:12:09;;;;;;;15.27;11.15;;;;;;;2.58;100.00;100524.84;5073043;28;20299;-85
2022/01/15 10:14:39;;;;;;;16.30;11.90;;;;;;;2.64;100.00;100526.53;5073048;28;20283;-83
2022/01/15 10:17:23;;;;;;;17.17;10.43;;;;;;;2.98;100.00;100527.03;5067881;28;20197;-83
2022/01/15 10:19:50;;;;;;;18.73;11.40;;;;;;;2.92;100.00;100525.34;5068852;28;20207;-82
2022/01/15 10:22:19;;;;;;;18.90;11.50;;;;;;;3.11;100.00;100525.09;5072490;28;20205;-84
2022/01/15 10:24:53;;;;;;;16.48;12.27;;;;;;;2.77;100.00;100527.28;5072684;28;20614;-85
2022/01/15 10:27:23;;;;;;;21.50;12.93;;;;;;;3.15;100.00;100526.81;5072827;28;20185;-84
2022/01/15 10:29:55;;;;;;;17.75;11.90;;;;;;;2.70;100.00;100523.81;5073251;28;20221;-82
2022/01/15 10:32:24;;;;;;;16.75;11.70;;;;;;;2.45;100.00;100521.41;5072542;28;20229;-83
2022/01/15 10:34:51;;;;;;;17.20;11.65;;;;;;;2.37;100.00;100522.38;5072118;28;20312;-82
2022/01/15 10:37:21;;;;;;;17.30;12.15;;;;;;;2.72;100.00;100512.25;5071798;28;20205;-83
2022/01/15 10:39:59;;;;;;;15.75;12.20;;;;;;;2.93;100.00;100504.91;5072044;28;20197;-84
2022/01/15 10:42:27;;;;;;;15.68;10.68;;;;;;;3.23;100.00;100516.06;5072178;28;20307;-84
2022/01/15 10:44:55;;;;;;;15.85;11.13;;;;;;;2.88;100.00;100509.41;5072187;28;20189;-83
2022/01/15 10:47:26;;;;;;;17.50;11.63;;;;;;;2.95;100.00;100513.75;5069527;28;20309;-84
2022/01/15 10:49:53;;;;;;;16.67;12.00;;;;;;;2.93;100.00;100500.47;5057200;28;20280;-85
2022/01/15 10:52:22;;;;;;;16.90;10.75;;;;;;;2.99;100.00;100496.88;5072923;28;20217;-85
2022/01/15 10:55:01;;;;;;;20.10;11.82;;;;;;;2.49;100.00;100501.00;5075586;28;20337;-84
2022/01/15 10:57:33;;;;;;;16.10;11.07;;;;;;;2.63;100.00;100503.50;5075568;28;20271;-84
2022/01/15 11:00:14;;;;;;;19.60;11.15;;;;;;;2.37;100.00;100491.38;5076439;28;20239;-84
2022/01/15 11:02:47;;;;;;;17.38;11.70;;;;;;;2.68;100.00;100497.22;5075626;28;20190;-83
2022/01/15 11:05:32;;;;;;;19.85;12.73;;;;;;;3.07;100.00;100497.63;5076173;28;20651;-84
2022/01/15 11:08:21;;;;;;;15.90;11.60;;;;;;;3.22;100.00;100498.34;5076108;28;20291;-85
2022/01/15 11:10:50;;;;;;;17.17;11.27;;;;;;;3.10;100.00;100494.94;5076246;28;20689;-85
2022/01/15 11:13:20;;;;;;;13.85;10.35;;;;;;;3.16;100.00;100493.97;5075438;28;20232;-83
2022/01/15 11:15:49;;;;;;;16.30;10.15;;;;;;;3.07;100.00;100491.44;5075425;28;20288;-83
2022/01/15 11:18:21;;;;;;;18.65;11.07;;;;;;;2.97;100.00;100487.16;5070638;28;20626;-81
2022/01/15 11:20:50;;;;;;;16.65;12.00;;;;;;;3.02;100.00;100488.84;5059430;28;20206;-81
2022/01/15 11:23:20;;;;;;;19.27;12.35;;;;;;;3.00;100.00;100468.47;5054981;28;20200;-83